Time;durP1;ratioP1;P1;durP2;ratioP2;P2;SDS_P1;SDS_P2;PMS_P1;PMS_P2;Temp;Humidity;BMP_temperature;BMP_pressure;BME280_temperature;BME280_humidity;BME280_pressure;Samples;Min_cycle;Max_cycle;Signal;HPM_P1;HPM_P2
2021/11/08 00:02:18;;;;;;;50.67;31.33;;;13.80;99.90;;;;;;4974109;28;20493;-77
2021/11/08 00:04:46;;;;;;;52.30;32.30;;;13.80;99.90;;;;;;4957721;28;20061;-79
2021/11/08 00:07:15;;;;;;;50.25;32.13;;;13.60;99.90;;;;;;4974971;28;20509;-78
2021/11/08 00:09:44;;;;;;;53.10;33.20;;;13.60;99.90;;;;;;4958579;28;20093;-78
2021/11/08 00:12:14;;;;;;;53.25;36.55;;;13.60;99.90;;;;;;4956912;29;20122;-79
2021/11/08 00:14:42;;;;;;;61.50;34.53;;;13.60;99.90;;;;;;4948244;28;20067;-78
2021/11/08 00:22:22;;;;;;;63.35;37.67;;;13.60;99.90;;;;;;4974626;28;20046;-78
2021/11/08 00:24:51;;;;;;;59.53;38.53;;;13.60;99.90;;;;;;4957215;28;20054;-79
2021/11/08 00:27:19;;;;;;;59.35;37.30;;;13.50;99.90;;;;;;4973144;28;20077;-78
2021/11/08 00:29:47;;;;;;;62.70;38.80;;;13.60;99.90;;;;;;4956754;28;20057;-79
2021/11/08 00:32:14;;;;;;;62.28;38.65;;;13.60;99.90;;;;;;4974529;28;20046;-78
2021/11/08 00:34:42;;;;;;;62.40;39.42;;;13.60;99.90;;;;;;4974268;28;20350;-77
2021/11/08 00:37:09;;;;;;;59.97;37.50;;;13.60;99.90;;;;;;4973106;28;20097;-77
2021/11/08 00:39:38;;;;;;;63.47;38.20;;;13.60;99.90;;;;;;4972178;28;20101;-77
2021/11/08 00:42:06;;;;;;;55.08;37.25;;;13.50;99.90;;;;;;4973659;28;20043;-77
2021/11/08 00:44:33;;;;;;;64.18;37.58;;;13.50;99.90;;;;;;4973075;28;20431;-78
2021/11/08 00:47:02;;;;;;;56.58;36.60;;;13.50;99.90;;;;;;4974743;28;20049;-78
2021/11/08 00:49:30;;;;;;;53.15;35.95;;;13.60;99.90;;;;;;4973458;28;20054;-77
2021/11/08 00:52:02;;;;;;;60.23;37.63;;;13.50;99.90;;;;;;4973537;28;20049;-76
2021/11/08 00:54:29;;;;;;;54.50;37.30;;;13.50;99.90;;;;;;4974107;28;20058;-76
2021/11/08 00:56:59;;;;;;;56.95;36.58;;;13.50;99.90;;;;;;4974175;28;20043;-77
2021/11/08 00:59:27;;;;;;;61.10;36.35;;;13.40;99.90;;;;;;4973834;28;20466;-76
2021/11/08 01:01:58;;;;;;;56.13;36.90;;;13.40;99.90;;;;;;4971776;28;20061;-78
2021/11/08 01:04:26;;;;;;;60.90;38.65;;;13.40;99.90;;;;;;4973710;28;20129;-76
2021/11/08 01:07:02;;;;;;;60.88;37.97;;;13.40;99.90;;;;;;4973636;28;20042;-79
2021/11/08 01:09:30;;;;;;;52.67;35.97;;;13.20;99.90;;;;;;4974518;28;20061;-78
2021/11/08 01:11:59;;;;;;;57.67;36.90;;;13.10;99.90;;;;;;4956993;28;20059;-76
2021/11/08 01:14:26;;;;;;;63.78;36.10;;;13.20;99.90;;;;;;4970648;28;20097;-78
2021/11/08 01:16:56;;;;;;;61.15;36.13;;;13.20;99.90;;;;;;4973910;28;20043;-77
2021/11/08 01:19:27;;;;;;;59.97;37.15;;;13.10;99.90;;;;;;4974418;28;20039;-78
2021/11/08 01:22:05;;;;;;;60.15;36.80;;;13.10;99.90;;;;;;4973699;28;20121;-78
2021/11/08 01:24:36;;;;;;;50.50;34.72;;;13.10;99.90;;;;;;4972236;28;20133;-78
2021/11/08 01:27:04;;;;;;;;;;;13.10;99.90;;;;;;4973078;28;20050;-78
2021/11/08 01:29:32;;;;;;;52.33;32.63;;;13.00;99.90;;;;;;4973054;28;19930;-77
2021/11/08 01:32:04;;;;;;;60.58;37.72;;;13.20;99.90;;;;;;4973707;28;20035;-77
2021/11/08 01:34:32;;;;;;;51.60;36.42;;;13.10;99.90;;;;;;4973183;28;20056;-79
2021/11/08 01:37:00;;;;;;;48.22;30.95;;;13.10;99.90;;;;;;4971070;28;20406;-77
2021/11/08 01:39:32;;;;;;;51.88;32.65;;;12.80;99.90;;;;;;4973480;28;20070;-77
2021/11/08 01:42:06;;;;;;;55.13;34.45;;;13.10;99.90;;;;;;4973774;28;20039;-77
2021/11/08 01:44:36;;;;;;;55.53;34.30;;;13.10;99.90;;;;;;4971490;28;20053;-77
2021/11/08 01:47:05;;;;;;;53.35;33.90;;;13.10;99.90;;;;;;4973385;28;20035;-76
2021/11/08 01:49:33;;;;;;;49.42;33.60;;;13.00;99.90;;;;;;4971470;28;20079;-75
2021/11/08 01:52:02;;;;;;;48.92;31.48;;;13.00;99.90;;;;;;4973128;28;20066;-76
2021/11/08 01:54:30;;;;;;;47.33;32.95;;;13.00;99.90;;;;;;4971600;28;20042;-74
2021/11/08 01:56:58;;;;;;;49.70;33.13;;;13.10;99.90;;;;;;4955653;28;20446;-76
2021/11/08 01:59:26;;;;;;;50.17;32.53;;;13.10;99.90;;;;;;4970859;28;20122;-76
2021/11/08 02:01:56;;;;;;;56.67;33.67;;;13.00;99.90;;;;;;4952090;29;20046;-75
2021/11/08 02:04:24;;;;;;;54.55;33.35;;;12.90;99.90;;;;;;4953313;28;20537;-76
2021/11/08 02:06:52;;;;;;;41.22;29.67;;;12.90;99.90;;;;;;4953307;28;20043;-77
2021/11/08 02:09:20;;;;;;;43.80;27.20;;;12.90;99.90;;;;;;4964737;28;20153;-78
2021/11/08 02:11:49;;;;;;;44.17;29.25;;;12.90;99.90;;;;;;4971933;28;20047;-77
2021/11/08 02:14:16;;;;;;;48.60;29.40;;;12.90;99.90;;;;;;4969983;28;20059;-77
2021/11/08 02:16:44;;;;;;;47.20;28.25;;;12.90;99.90;;;;;;4972599;28;20123;-75
2021/11/08 02:19:11;;;;;;;45.22;28.27;;;12.90;99.90;;;;;;4972996;28;20483;-75
2021/11/08 02:21:39;;;;;;;40.17;28.27;;;12.90;99.90;;;;;;4971897;28;20043;-75
2021/11/08 02:24:12;;;;;;;43.03;26.63;;;12.90;99.90;;;;;;4971664;28;20128;-75
2021/11/08 02:26:43;;;;;;;46.15;28.70;;;12.90;99.90;;;;;;4971608;28;20089;-75
2021/11/08 02:29:12;;;;;;;51.65;32.55;;;12.80;99.90;;;;;;4971830;28;20052;-75
2021/11/08 02:31:40;;;;;;;48.45;33.63;;;12.60;99.90;;;;;;4972458;28;20102;-75
2021/11/08 02:34:08;;;;;;;66.13;40.20;;;12.60;99.90;;;;;;4971911;28;20481;-76
2021/11/08 02:36:41;;;;;;;63.03;40.75;;;12.60;99.90;;;;;;4969525;28;20593;-78
2021/11/08 02:39:28;;;;;;;59.97;39.65;;;12.50;99.90;;;;;;4972804;28;20035;-77
2021/11/08 02:41:57;;;;;;;58.15;39.97;;;12.50;99.90;;;;;;4971766;28;20051;-77
2021/11/08 02:44:24;;;;;;;61.70;40.33;;;12.60;99.90;;;;;;4971361;28;20402;-79
2021/11/08 02:46:53;;;;;;;62.83;36.83;;;12.60;99.90;;;;;;4972036;28;20078;-76
2021/11/08 02:49:30;;;;;;;53.47;33.38;;;12.70;99.90;;;;;;4970308;28;20515;-77
2021/11/08 02:52:05;;;;;;;52.40;35.08;;;12.70;99.90;;;;;;4972391;28;20051;-76
2021/11/08 02:54:37;;;;;;;53.75;34.90;;;12.80;99.90;;;;;;4972046;28;20042;-76
2021/11/08 02:57:06;;;;;;;55.75;33.90;;;12.70;99.90;;;;;;4970693;28;20035;-75
2021/11/08 02:59:35;;;;;;;52.17;33.92;;;12.70;99.90;;;;;;4970919;28;20047;-73
2021/11/08 03:02:04;;;;;;;60.45;35.90;;;12.60;99.90;;;;;;4971171;28;20062;-76
2021/11/08 03:04:34;;;;;;;53.80;35.72;;;12.60;99.90;;;;;;4971265;28;20089;-75
2021/11/08 03:07:02;;;;;;;;;;;12.60;99.90;;;;;;4972854;28;20070;-75
2021/11/08 03:09:36;;;;;;;51.63;32.45;;;12.60;99.90;;;;;;4972544;28;19922;-74
2021/11/08 03:12:13;;;;;;;51.22;32.13;;;12.40;99.90;;;;;;4969607;28;20724;-75
2021/11/08 03:15:32;;;;;;;40.85;26.92;;;12.30;99.90;;;;;;4971566;28;20055;-75
2021/11/08 03:17:34;;;;;;;33.45;23.45;;;12.30;99.90;;;;;;4965386;28;20078;-74
2021/11/08 03:20:04;;;;;;;32.28;21.67;;;12.30;99.90;;;;;;4952836;28;20150;-78
2021/11/08 03:22:33;;;;;;;32.58;21.23;;;12.40;99.90;;;;;;4952494;28;20131;-76
2021/11/08 03:25:13;;;;;;;32.75;20.92;;;12.40;99.90;;;;;;4950528;28;20047;-75
2021/11/08 03:30:14;;;;;;;28.33;19.92;;;12.40;99.90;;;;;;4968495;28;20081;-76
2021/11/08 03:32:47;;;;;;;27.42;19.17;;;12.40;99.90;;;;;;4972257;28;20130;-76
2021/11/08 03:35:19;;;;;;;28.48;19.08;;;12.30;99.90;;;;;;4969971;28;20446;-75
2021/11/08 03:37:48;;;;;;;30.40;18.45;;;12.30;99.90;;;;;;4971050;28;20113;-78
2021/11/08 03:40:29;;;;;;;28.65;17.95;;;12.30;99.90;;;;;;4971818;28;20035;-78
2021/11/08 03:42:57;;;;;;;28.85;18.92;;;12.30;99.90;;;;;;4971787;28;20446;-77
2021/11/08 03:45:27;;;;;;;26.45;18.98;;;12.20;99.90;;;;;;4971118;28;20049;-77
2021/11/08 03:47:55;;;;;;;23.20;18.27;;;12.00;99.90;;;;;;4969731;28;20058;-77
2021/11/08 03:50:23;;;;;;;25.73;17.88;;;11.90;99.90;;;;;;4971447;28;20369;-76
2021/11/08 03:52:50;;;;;;;24.02;17.63;;;11.90;99.90;;;;;;4971812;28;20035;-78
2021/11/08 03:55:19;;;;;;;26.60;18.40;;;12.00;99.90;;;;;;4969218;28;20078;-77
2021/11/08 03:57:48;;;;;;;24.50;18.20;;;12.00;99.90;;;;;;4950664;29;20039;-77
2021/11/08 04:00:18;;;;;;;24.45;17.83;;;11.90;99.90;;;;;;4966414;28;20101;-77
2021/11/08 04:02:46;;;;;;;26.73;18.10;;;11.80;99.90;;;;;;4971915;28;20039;-77
2021/11/08 04:05:16;;;;;;;26.00;17.38;;;11.80;99.90;;;;;;4953388;28;20396;-77
2021/11/08 04:07:44;;;;;;;26.80;19.15;;;11.90;99.90;;;;;;4971515;28;20070;-75
2021/11/08 04:10:14;;;;;;;27.42;19.60;;;11.90;99.90;;;;;;4974612;28;20065;-77
2021/11/08 04:12:43;;;;;;;29.60;20.48;;;11.70;99.90;;;;;;4973074;28;20067;-76
2021/11/08 04:15:14;;;;;;;32.00;20.52;;;11.80;99.90;;;;;;4974392;28;20046;-76
2021/11/08 04:17:46;;;;;;;29.70;20.50;;;11.80;99.90;;;;;;4975437;28;20047;-77
2021/11/08 04:20:17;;;;;;;30.30;21.35;;;11.90;99.90;;;;;;4974908;28;20490;-77
2021/11/08 04:22:49;;;;;;;31.23;20.85;;;11.80;99.90;;;;;;4973914;28;20113;-76
2021/11/08 04:25:20;;;;;;;32.03;20.42;;;11.80;99.90;;;;;;4956172;28;20395;-75
2021/11/08 04:27:48;;;;;;;32.95;20.88;;;11.90;99.90;;;;;;4975196;28;20132;-76
2021/11/08 04:30:15;;;;;;;30.95;21.80;;;11.70;99.90;;;;;;4974889;28;20043;-76
2021/11/08 04:40:46;;;;;;;28.98;18.58;;;11.70;99.90;;;;;;4974619;28;20047;-76
2021/11/08 04:51:11;;;;;;;24.17;17.85;;;11.70;99.90;;;;;;4974918;28;20050;-76
2021/11/08 05:32:24;;;;;;;31.90;20.98;;;11.60;99.90;;;;;;4972909;28;20046;-77
2021/11/08 05:34:53;;;;;;;35.67;21.20;;;11.70;99.90;;;;;;4970344;28;20046;-77
2021/11/08 05:37:23;;;;;;;31.00;20.27;;;11.70;99.90;;;;;;4973298;28;20046;-76
2021/11/08 05:39:54;;;;;;;34.40;20.88;;;11.70;99.90;;;;;;4960838;28;20051;-78
2021/11/08 05:42:24;;;;;;;31.48;18.65;;;11.80;99.90;;;;;;4954279;28;20051;-77
2021/11/08 05:44:53;;;;;;;28.90;18.67;;;11.80;99.90;;;;;;4966707;28;20534;-76
2021/11/08 05:47:24;;;;;;;31.52;18.40;;;11.80;99.90;;;;;;4969968;28;20038;-77
2021/11/08 05:49:55;;;;;;;28.75;18.02;;;11.60;99.90;;;;;;4973548;28;20143;-79
2021/11/08 05:52:22;;;;;;;25.30;17.75;;;11.50;99.90;;;;;;4968395;28;20106;-75
2021/11/08 05:54:50;;;;;;;28.40;18.92;;;11.70;99.90;;;;;;4953045;29;20047;-75
2021/11/08 06:00:49;;;;;;;24.33;17.52;;;11.70;99.90;;;;;;4968509;28;20042;-74
2021/11/08 06:49:41;;;;;;;30.70;17.92;;;12.20;99.90;;;;;;4968701;28;20120;-84
2021/11/08 06:52:11;;;;;;;30.38;19.20;;;12.10;99.90;;;;;;4952061;29;20130;-83
2021/11/08 06:54:40;;;;;;;40.63;18.42;;;12.20;99.90;;;;;;4952430;29;20130;-83
2021/11/08 06:57:12;;;;;;;27.65;17.33;;;12.20;99.90;;;;;;4950919;28;20470;-83
2021/11/08 06:59:46;;;;;;;25.55;16.52;;;12.20;99.90;;;;;;4936262;29;20106;-83
2021/11/08 07:02:21;;;;;;;27.88;16.15;;;12.10;99.90;;;;;;4969373;28;20095;-86
2021/11/08 07:04:49;;;;;;;24.55;16.30;;;12.00;99.90;;;;;;4986711;28;20039;-84
2021/11/08 07:07:20;;;;;;;23.60;16.17;;;11.90;99.90;;;;;;4962126;28;20047;-84
2021/11/08 07:10:12;;;;;;;28.33;16.42;;;12.10;99.90;;;;;;4948819;29;20055;-84
2021/11/08 07:12:50;;;;;;;29.00;17.75;;;12.10;99.90;;;;;;4953279;28;20063;-85
2021/11/08 07:15:19;;;;;;;29.90;18.58;;;12.00;99.90;;;;;;4987369;28;20127;-83
2021/11/08 07:17:47;;;;;;;29.00;18.42;;;12.00;99.90;;;;;;4972382;28;20047;-88
2021/11/08 07:20:15;;;;;;;27.35;18.42;;;12.00;99.90;;;;;;4972657;28;20113;-80
2021/11/08 07:22:43;;;;;;;28.65;19.17;;;12.10;99.90;;;;;;4955798;28;20046;-85
2021/11/08 07:25:11;;;;;;;27.38;18.23;;;12.30;99.90;;;;;;4956287;28;20122;-86
2021/11/08 07:27:38;;;;;;;26.20;17.95;;;12.50;99.90;;;;;;4973590;28;20390;-87
2021/11/08 07:30:08;;;;;;;63.65;39.75;;;12.80;99.90;;;;;;4972472;28;20459;-81
2021/11/08 07:32:36;;;;;;;62.22;40.20;;;13.30;99.90;;;;;;4955055;28;20377;-79
2021/11/08 07:35:04;;;;;;;51.03;35.60;;;13.70;99.90;;;;;;4973070;28;20554;-83
2021/11/08 07:37:32;;;;;;;40.90;23.17;;;13.80;99.90;;;;;;4973082;28;20053;-83
2021/11/08 07:39:59;;;;;;;30.50;21.63;;;13.60;99.90;;;;;;4972305;28;20449;-85
2021/11/08 07:42:26;;;;;;;31.70;20.10;;;13.60;99.90;;;;;;4955412;28;20046;-81
2021/11/08 07:44:54;;;;;;;31.45;20.27;;;13.60;99.90;;;;;;4959415;28;20054;-81
2021/11/08 07:47:21;;;;;;;35.33;21.92;;;13.80;99.90;;;;;;4958687;28;20046;-84
2021/11/08 07:49:48;;;;;;;34.75;22.33;;;13.70;99.90;;;;;;4975914;28;20209;-84
2021/11/08 07:52:16;;;;;;;40.75;23.05;;;14.00;99.90;;;;;;4958323;28;20066;-79
2021/11/08 07:54:44;;;;;;;37.17;23.30;;;14.20;99.90;;;;;;4975837;28;20149;-83
2021/11/08 07:57:12;;;;;;;35.33;23.13;;;14.60;99.90;;;;;;4974697;28;20047;-83
2021/11/08 07:59:39;;;;;;;36.28;23.83;;;14.60;99.90;;;;;;4974984;28;20121;-81
2021/11/08 08:02:08;;;;;;;42.60;25.52;;;14.70;99.90;;;;;;4975030;28;20039;-81
2021/11/08 08:04:36;;;;;;;33.45;23.20;;;15.10;99.90;;;;;;4975875;28;20558;-78
2021/11/08 08:07:04;;;;;;;53.38;31.80;;;15.30;99.90;;;;;;4975134;28;20077;-79
2021/11/08 08:09:32;;;;;;;54.35;34.90;;;14.70;99.90;;;;;;4970623;28;20077;-79
2021/11/08 08:12:00;;;;;;;54.75;35.85;;;15.00;99.90;;;;;;4973634;28;20059;-82
2021/11/08 08:14:28;;;;;;;48.00;30.38;;;15.70;99.90;;;;;;4957718;28;20417;-83
2021/11/08 08:16:55;;;;;;;40.88;26.02;;;15.80;99.90;;;;;;4957807;28;20038;-82
2021/11/08 08:19:22;;;;;;;39.38;25.75;;;15.70;99.90;;;;;;4960361;28;20146;-83
2021/11/08 08:21:50;;;;;;;41.53;26.50;;;15.60;99.90;;;;;;4959221;28;20047;-84
2021/11/08 08:24:17;;;;;;;39.88;25.38;;;15.50;99.90;;;;;;4975143;28;20046;-82
2021/11/08 08:26:45;;;;;;;39.95;24.95;;;15.70;99.90;;;;;;4974267;28;20416;-82
2021/11/08 08:29:14;;;;;;;33.88;24.05;;;15.90;99.90;;;;;;4974437;28;20440;-81
2021/11/08 08:31:45;;;;;;;38.28;25.50;;;16.00;99.90;;;;;;4973791;28;20051;-82
2021/11/08 08:34:15;;;;;;;36.60;23.50;;;16.10;99.90;;;;;;4957245;28;20042;-82
2021/11/08 08:36:43;;;;;;;36.90;24.33;;;16.00;99.90;;;;;;4973951;28;20041;-83
2021/11/08 08:39:11;;;;;;;36.25;23.52;;;16.00;99.90;;;;;;4956794;28;20078;-82
2021/11/08 08:41:42;;;;;;;37.38;23.83;;;16.10;99.90;;;;;;4956652;28;20042;-83
2021/11/08 08:44:13;;;;;;;35.13;22.73;;;16.20;99.90;;;;;;4974104;28;20046;-83
2021/11/08 08:46:45;;;;;;;34.45;23.48;;;16.30;99.90;;;;;;4972220;28;20130;-82
2021/11/08 08:49:22;;;;;;;35.70;23.00;;;16.30;99.90;;;;;;4973261;28;20038;-83
2021/11/08 08:51:51;;;;;;;34.00;22.38;;;16.50;99.90;;;;;;4956284;28;20117;-81
2021/11/08 08:54:19;;;;;;;34.38;22.65;;;16.50;99.90;;;;;;4973507;28;20042;-83
2021/11/08 08:56:47;;;;;;;32.33;22.35;;;16.50;99.90;;;;;;4973142;28;20047;-81
2021/11/08 08:59:14;;;;;;;35.17;22.88;;;16.30;99.90;;;;;;4956127;28;20047;-83
2021/11/08 09:01:42;;;;;;;38.15;24.85;;;16.20;99.90;;;;;;4969514;28;20053;-83
2021/11/08 09:04:09;;;;;;;37.85;24.45;;;16.10;99.90;;;;;;4969492;28;20402;-81
2021/11/08 09:06:36;;;;;;;38.40;23.73;;;16.00;99.90;;;;;;4954038;29;20118;-82
2021/11/08 09:09:04;;;;;;;38.65;24.23;;;15.90;99.90;;;;;;4954450;28;20040;-81
2021/11/08 09:11:32;;;;;;;39.28;24.20;;;15.90;99.90;;;;;;4964682;28;20563;-83
2021/11/08 09:14:01;;;;;;;34.20;22.77;;;16.10;99.90;;;;;;4928546;28;1275728;-82
2021/11/08 09:16:29;;;;;;;35.60;22.67;;;16.10;99.90;;;;;;4956783;28;20062;-84
2021/11/08 09:18:58;;;;;;;31.15;21.95;;;15.70;99.90;;;;;;4956705;28;20085;-86
2021/11/08 09:21:27;;;;;;;33.95;21.30;;;15.70;99.90;;;;;;4974008;28;20462;-82
2021/11/08 09:23:57;;;;;;;34.85;23.42;;;15.60;99.90;;;;;;4971064;28;20038;-81
2021/11/08 09:26:26;;;;;;;36.67;21.48;;;15.60;99.90;;;;;;4963896;28;20043;-82
2021/11/08 09:28:53;;;;;;;79.35;50.63;;;15.70;99.90;;;;;;4963103;28;20034;-81
2021/11/08 09:31:21;;;;;;;151.32;91.72;;;16.00;99.90;;;;;;4963494;28;20078;-78
2021/11/08 09:33:50;;;;;;;54.40;35.42;;;16.20;99.90;;;;;;4960454;28;20044;-81
2021/11/08 09:36:17;;;;;;;37.80;24.08;;;16.40;99.90;;;;;;4963461;28;20075;-81
2021/11/08 09:38:55;;;;;;;36.15;23.23;;;15.90;99.90;;;;;;4966776;28;20118;-84
2021/11/08 09:41:32;;;;;;;33.03;23.10;;;15.80;99.90;;;;;;4961481;28;20043;-80
2021/11/08 09:44:01;;;;;;;37.00;24.42;;;15.80;99.90;;;;;;4961642;28;20047;-81
2021/11/08 09:46:30;;;;;;;32.07;23.93;;;15.70;99.90;;;;;;4961275;28;20035;-84
2021/11/08 09:49:01;;;;;;;34.60;24.27;;;15.80;99.90;;;;;;4944430;28;20039;-80
2021/11/08 09:51:32;;;;;;;34.63;24.33;;;15.80;99.90;;;;;;4952761;28;20410;-82
2021/11/08 09:54:02;;;;;;;33.88;23.13;;;15.90;99.90;;;;;;4956394;28;20066;-84
2021/11/08 09:56:30;;;;;;;32.15;22.42;;;15.90;99.90;;;;;;4960506;28;20046;-83
2021/11/08 09:58:59;;;;;;;30.40;22.90;;;16.00;99.90;;;;;;4963618;28;20524;-82
2021/11/08 10:01:46;;;;;;;36.85;24.50;;;16.10;99.90;;;;;;4959773;28;20039;-83
2021/11/08 10:04:15;;;;;;;38.78;24.50;;;16.10;99.90;;;;;;4953767;28;20372;-83
2021/11/08 10:06:43;;;;;;;37.55;23.77;;;16.10;99.90;;;;;;4969276;28;20066;-81
2021/11/08 10:09:13;;;;;;;38.63;24.52;;;16.30;99.90;;;;;;4962638;28;20039;-81
2021/11/08 10:11:44;;;;;;;36.55;23.88;;;16.30;99.90;;;;;;4958465;28;20055;-84
2021/11/08 10:14:12;;;;;;;38.90;25.05;;;16.40;99.90;;;;;;4973032;28;20126;-84
2021/11/08 10:16:41;;;;;;;39.53;25.00;;;16.20;99.90;;;;;;4968273;28;20383;-82
2021/11/08 10:19:11;;;;;;;42.67;25.75;;;16.30;99.90;;;;;;4964209;28;20118;-82
2021/11/08 10:21:42;;;;;;;36.88;24.67;;;16.50;99.90;;;;;;4950047;28;20130;-83
2021/11/08 10:24:22;;;;;;;39.97;23.95;;;16.60;99.90;;;;;;4972466;28;20442;-83
2021/11/08 10:26:53;;;;;;;41.53;24.80;;;16.70;99.90;;;;;;4965828;28;20071;-83
2021/11/08 10:29:25;;;;;;;37.95;24.45;;;16.80;99.90;;;;;;4962552;28;20043;-84
2021/11/08 10:32:08;;;;;;;38.67;24.42;;;16.90;99.90;;;;;;4967031;28;20051;-82
2021/11/08 10:34:56;;;;;;;38.53;24.35;;;16.90;99.90;;;;;;4948448;28;20043;-84
2021/11/08 10:37:26;;;;;;;36.17;24.60;;;16.90;99.90;;;;;;4952556;28;20057;-84
2021/11/08 10:40:16;;;;;;;39.38;24.15;;;16.90;99.90;;;;;;4949487;29;20050;-83
2021/11/08 10:43:03;;;;;;;45.95;24.08;;;16.80;99.90;;;;;;4959582;28;20049;-81
2021/11/08 10:45:31;;;;;;;43.72;24.63;;;16.80;99.90;;;;;;4972042;28;20153;-81
2021/11/08 10:48:01;;;;;;;56.90;34.95;;;16.80;99.90;;;;;;4955538;28;20441;-77
2021/11/08 10:50:39;;;;;;;42.30;28.70;;;17.20;99.90;;;;;;4955602;28;20459;-78
2021/11/08 10:53:07;;;;;;;85.88;57.97;;;17.40;99.90;;;;;;4987162;28;20465;-80
2021/11/08 10:55:36;;;;;;;49.63;32.92;;;17.60;99.90;;;;;;4971979;28;20438;-81
2021/11/08 10:58:19;;;;;;;48.03;30.00;;;17.60;99.90;;;;;;4972151;28;20077;-80
2021/11/08 11:01:01;;;;;;;39.58;25.73;;;17.70;99.90;;;;;;4949681;29;20495;-83
2021/11/08 11:03:30;;;;;;;44.63;26.35;;;17.70;99.90;;;;;;4952617;29;20055;-82
2021/11/08 11:05:59;;;;;;;37.90;24.42;;;17.60;99.90;;;;;;4952367;29;20442;-81
2021/11/08 11:08:27;;;;;;;41.63;26.63;;;17.90;99.90;;;;;;4952713;29;20047;-79
2021/11/08 11:11:01;;;;;;;77.65;49.42;;;18.50;99.90;;;;;;4961299;28;20482;-78
2021/11/08 11:13:30;;;;;;;79.80;52.78;;;19.10;99.90;;;;;;4972175;28;20058;-77
2021/11/08 11:16:01;;;;;;;69.87;41.20;;;19.10;99.90;;;;;;4971641;28;20078;-80
2021/11/08 11:18:34;;;;;;;48.17;29.45;;;19.00;99.90;;;;;;4974906;28;20045;-81
2021/11/08 11:21:18;;;;;;;39.67;25.63;;;18.60;99.90;;;;;;4974962;28;20098;-80
2021/11/08 11:23:50;;;;;;;39.72;26.48;;;18.10;99.90;;;;;;4974832;28;20129;-80
2021/11/08 11:26:20;;;;;;;42.83;24.58;;;17.90;99.90;;;;;;4973867;28;20441;-79
2021/11/08 11:28:50;;;;;;;46.53;25.20;;;17.70;99.90;;;;;;4974358;28;20422;-79
2021/11/08 11:31:24;;;;;;;38.17;24.10;;;17.80;99.90;;;;;;4974612;28;20055;-81
2021/11/08 11:33:55;;;;;;;32.30;23.25;;;17.70;99.90;;;;;;4974085;28;20034;-81
2021/11/08 11:36:23;;;;;;;;;;;17.60;99.90;;;;;;4974371;28;20039;-80
2021/11/08 11:38:56;;;;;;;38.85;22.63;;;17.60;99.90;;;;;;4974731;28;19926;-82
2021/11/08 11:41:28;;;;;;;36.72;23.02;;;17.40;99.90;;;;;;4975252;28;20488;-82
2021/11/08 11:44:03;;;;;;;35.90;23.23;;;17.40;99.90;;;;;;4976353;28;20050;-82
2021/11/08 11:46:38;;;;;;;39.53;23.30;;;17.30;99.90;;;;;;4975180;28;20049;-82
2021/11/08 11:49:06;;;;;;;39.03;22.13;;;17.30;99.90;;;;;;4975941;28;20050;-81
2021/11/08 11:51:41;;;;;;;41.03;22.27;;;17.50;99.90;;;;;;4975353;28;20062;-81
2021/11/08 11:54:10;;;;;;;39.35;21.15;;;17.50;99.90;;;;;;4975336;28;20105;-83
2021/11/08 11:56:40;;;;;;;34.13;21.02;;;17.40;99.90;;;;;;4975227;28;20433;-82
2021/11/08 11:59:14;;;;;;;31.45;21.17;;;17.40;99.90;;;;;;4959304;28;20050;-80
2021/11/08 12:01:42;;;;;;;41.65;24.33;;;17.50;99.90;;;;;;4976547;28;20457;-81
2021/11/08 12:04:26;;;;;;;49.03;25.40;;;17.40;99.90;;;;;;4975788;28;20398;-80
2021/11/08 12:06:58;;;;;;;43.08;24.23;;;16.90;99.90;;;;;;4959080;28;20053;-82
2021/11/08 12:09:28;;;;;;;40.30;23.83;;;16.80;99.90;;;;;;4960276;28;20085;-81
2021/11/08 12:11:56;;;;;;;38.97;21.95;;;17.00;99.90;;;;;;4977222;28;20106;-81
2021/11/08 12:14:26;;;;;;;36.72;22.25;;;17.30;99.90;;;;;;4976012;28;20053;-80
2021/11/08 12:17:19;;;;;;;39.97;22.90;;;17.40;99.90;;;;;;4979971;28;20127;-81
2021/11/08 12:19:48;;;;;;;47.95;24.55;;;17.50;99.90;;;;;;4960345;28;20071;-84
2021/11/08 12:22:19;;;;;;;46.63;26.52;;;17.60;99.90;;;;;;4976205;28;20435;-82
2021/11/08 12:25:00;;;;;;;43.65;25.95;;;17.40;99.90;;;;;;4976181;28;20047;-83
2021/11/08 12:27:38;;;;;;;48.15;27.42;;;17.30;99.90;;;;;;4975799;28;20068;-82
2021/11/08 12:30:30;;;;;;;48.95;25.05;;;17.60;99.90;;;;;;4974831;28;20366;-77
2021/11/08 12:33:02;;;;;;;42.78;24.83;;;17.90;99.90;;;;;;4975421;28;20046;-80
2021/11/08 12:35:33;;;;;;;41.33;24.25;;;18.40;99.90;;;;;;4975329;28;20540;-81
2021/11/08 12:38:13;;;;;;;41.97;23.67;;;18.80;99.90;;;;;;4974677;28;20466;-82
2021/11/08 12:40:41;;;;;;;36.72;23.45;;;18.90;99.90;;;;;;4973789;28;20145;-81
2021/11/08 12:43:08;;;;;;;41.22;23.40;;;18.80;99.90;;;;;;4975124;28;20045;-81
2021/11/08 12:45:42;;;;;;;37.38;21.83;;;18.80;99.90;;;;;;4958376;28;20146;-80
2021/11/08 12:48:12;;;;;;;41.47;23.80;;;18.70;99.90;;;;;;4974507;28;20418;-81
2021/11/08 12:50:43;;;;;;;34.60;23.90;;;18.60;99.90;;;;;;4974600;28;20147;-81
2021/11/08 12:53:36;;;;;;;;;;;18.60;99.90;;;;;;4974938;28;20182;-81
2021/11/08 12:56:18;;;;;;;43.15;20.17;;;18.50;99.90;;;;;;4972190;28;19921;-82
2021/11/08 12:58:51;;;;;;;38.03;20.65;;;18.10;99.90;;;;;;4972947;28;20045;-80
2021/11/08 13:01:20;;;;;;;38.33;20.70;;;18.00;99.90;;;;;;4972790;28;20138;-80
2021/11/08 13:03:53;;;;;;;31.63;19.08;;;18.10;99.90;;;;;;4974056;28;20049;-82
2021/11/08 13:06:30;;;;;;;37.33;18.58;;;18.20;99.90;;;;;;4988506;28;20043;-81
2021/11/08 13:09:19;;;;;;;30.25;17.60;;;18.50;99.90;;;;;;4974574;28;20057;-80
2021/11/08 13:11:56;;;;;;;28.48;17.65;;;18.90;99.90;;;;;;4961839;28;20394;-81
2021/11/08 13:14:34;;;;;;;30.50;17.45;;;19.10;99.90;;;;;;4955362;29;20043;-81
2021/11/08 13:17:11;;;;;;;38.10;17.15;;;19.10;99.90;;;;;;4955079;29;20144;-82
2021/11/08 13:19:51;;;;;;;31.02;15.95;;;18.90;99.90;;;;;;4955546;29;20464;-82
2021/11/08 13:22:42;;;;;;;31.42;17.25;;;18.70;99.90;;;;;;4954889;29;20050;-81
2021/11/08 13:25:17;;;;;;;28.42;17.08;;;18.20;99.90;;;;;;4955410;29;20114;-81
2021/11/08 13:27:58;;;;;;;33.50;17.67;;;18.20;99.90;;;;;;4954834;29;20095;-82
2021/11/08 13:30:36;;;;;;;32.35;18.80;;;18.00;99.90;;;;;;4955404;29;20494;-81
2021/11/08 13:33:05;;;;;;;38.45;18.77;;;18.00;99.90;;;;;;4954995;29;20055;-81
2021/11/08 13:35:34;;;;;;;36.95;18.98;;;17.90;99.90;;;;;;4954610;29;20122;-84
2021/11/08 13:38:08;;;;;;;34.60;19.05;;;17.80;99.90;;;;;;4937348;29;20122;-81
2021/11/08 13:40:38;;;;;;;31.17;17.27;;;18.00;99.90;;;;;;4953927;28;20043;-79
2021/11/08 13:43:19;;;;;;;36.67;18.65;;;18.00;99.90;;;;;;4954179;29;20051;-81
2021/11/08 13:45:54;;;;;;;35.20;17.67;;;17.90;99.90;;;;;;4954498;29;20050;-81
2021/11/08 13:48:33;;;;;;;30.40;17.60;;;17.80;99.90;;;;;;4954748;29;20135;-82
2021/11/08 13:51:06;;;;;;;33.17;17.77;;;17.80;99.90;;;;;;4954298;29;20118;-80
2021/11/08 13:53:36;;;;;;;33.88;16.00;;;17.80;99.90;;;;;;4954114;29;20043;-81
2021/11/08 13:56:08;;;;;;;27.30;14.73;;;17.90;99.90;;;;;;4954292;29;20051;-80
2021/11/08 13:58:47;;;;;;;26.60;15.13;;;17.90;99.90;;;;;;4954357;29;20070;-81
2021/11/08 14:01:14;;;;;;;25.98;16.83;;;18.20;99.90;;;;;;4953945;29;20118;-82
2021/11/08 14:03:46;;;;;;;34.88;16.25;;;18.10;99.90;;;;;;4954164;29;20051;-80
2021/11/08 14:06:24;;;;;;;26.63;15.40;;;17.90;99.90;;;;;;4972075;28;20749;-80
2021/11/08 14:08:52;;;;;;;22.67;12.80;;;18.00;99.90;;;;;;4956328;28;20046;-81
2021/11/08 14:11:32;;;;;;;21.23;11.63;;;18.20;99.90;;;;;;4972352;28;20061;-79
2021/11/08 14:14:03;;;;;;;30.48;12.80;;;18.30;99.90;;;;;;4972835;28;20743;-80
2021/11/08 14:16:31;;;;;;;23.45;12.38;;;18.40;99.90;;;;;;4956397;28;20082;-79
2021/11/08 14:18:58;;;;;;;29.08;12.45;;;18.50;99.90;;;;;;4973499;28;20043;-82
2021/11/08 14:21:28;;;;;;;27.10;12.50;;;18.40;99.90;;;;;;4959101;28;20043;-82
2021/11/08 14:24:05;;;;;;;28.98;13.15;;;18.60;99.90;;;;;;4955736;28;20126;-78
2021/11/08 14:26:34;;;;;;;20.30;12.68;;;18.60;99.90;;;;;;4954143;28;20054;-79
2021/11/08 14:29:26;;;;;;;19.42;13.20;;;18.50;99.90;;;;;;4954022;28;20047;-79
2021/11/08 14:32:07;;;;;;;22.83;13.48;;;18.50;99.90;;;;;;4953608;28;20078;-78
2021/11/08 14:34:40;;;;;;;24.20;14.48;;;18.70;99.90;;;;;;4953786;28;20076;-79
2021/11/08 14:37:11;;;;;;;22.73;12.85;;;18.60;99.90;;;;;;4953821;28;20125;-81
2021/11/08 14:39:47;;;;;;;25.92;13.52;;;18.70;99.90;;;;;;4956260;28;20061;-83
2021/11/08 14:42:17;;;;;;;25.25;14.25;;;18.60;99.90;;;;;;4971265;28;20474;-84